createdAt,value
2022-11-21T00:02:18.735Z,-3.18
2022-11-21T00:05:42.464Z,-3.18
2022-11-21T00:08:44.960Z,-3.18
2022-11-21T00:11:46.671Z,-3.17
2022-11-21T00:14:48.463Z,-3.17
2022-11-21T00:17:50.613Z,-3.19
2022-11-21T00:20:52.451Z,-3.23
2022-11-21T00:23:54.201Z,-3.28
2022-11-21T00:26:56.360Z,-3.30
2022-11-21T00:29:58.008Z,-3.32
2022-11-21T00:32:59.776Z,-3.35
2022-11-21T00:36:09.015Z,-3.36
2022-11-21T00:39:10.827Z,-3.37
2022-11-21T00:42:15.644Z,-3.40
2022-11-21T00:45:22.703Z,-3.43
2022-11-21T00:48:26.028Z,-3.45
2022-11-21T00:51:30.878Z,-3.49
2022-11-21T00:54:32.517Z,-3.53
2022-11-21T00:57:37.263Z,-3.59
2022-11-21T01:00:39.000Z,-3.65
2022-11-21T01:03:40.868Z,-3.72
2022-11-21T01:06:42.612Z,-3.76
2022-11-21T01:09:44.242Z,-3.78
2022-11-21T01:12:46.156Z,-3.80
2022-11-21T01:15:47.915Z,-3.84
2022-11-21T01:18:49.757Z,-3.87
2022-11-21T01:21:51.323Z,-3.90
2022-11-21T01:24:53.137Z,-3.92
2022-11-21T01:27:54.663Z,-3.94
2022-11-21T01:30:56.566Z,-3.94
2022-11-21T01:33:58.779Z,-3.91
2022-11-21T01:37:01.320Z,-3.90
2022-11-21T01:40:04.028Z,-3.90
2022-11-21T01:43:14.813Z,-3.90
2022-11-21T01:46:21.570Z,-3.88
2022-11-21T01:49:31.251Z,-3.83
2022-11-21T01:52:33.140Z,-3.78
2022-11-21T01:55:35.335Z,-3.74
2022-11-21T01:58:37.053Z,-3.70
2022-11-21T02:01:39.284Z,-3.66
2022-11-21T02:04:42.677Z,-3.62
2022-11-21T02:07:46.364Z,-3.58
2022-11-21T02:10:56.207Z,-3.58
2022-11-21T02:13:58.043Z,-3.60
2022-11-21T02:17:00.767Z,-3.64
2022-11-21T02:20:05.910Z,-3.69
2022-11-21T02:23:21.003Z,-3.72
2022-11-21T02:26:22.997Z,-3.75
2022-11-21T02:29:24.814Z,-3.79
2022-11-21T02:32:34.341Z,-3.86
2022-11-21T02:35:36.837Z,-3.93
2022-11-21T02:38:39.028Z,-3.96
2022-11-21T02:41:49.038Z,-3.96
2022-11-21T02:45:21.664Z,-3.99
2022-11-21T02:48:23.472Z,-4.00
2022-11-21T02:51:25.399Z,-4.03
2022-11-21T02:54:27.342Z,-4.05
2022-11-21T02:57:29.233Z,-4.09
2022-11-21T03:00:31.118Z,-4.13
2022-11-21T03:03:32.654Z,-4.18
2022-11-21T03:06:34.489Z,-4.25
2022-11-21T03:09:35.995Z,-4.32
2022-11-21T03:12:42.525Z,-4.40
2022-11-21T03:15:44.117Z,-4.45
2022-11-21T03:18:45.808Z,-4.49
2022-11-21T03:21:47.566Z,-4.54
2022-11-21T03:24:49.254Z,-4.59
2022-11-21T03:27:52.527Z,-4.63
2022-11-21T03:30:54.325Z,-4.67
2022-11-21T03:33:56.205Z,-4.70
2022-11-21T03:36:57.929Z,-4.73
2022-11-21T03:39:59.708Z,-4.77
2022-11-21T03:43:07.983Z,-4.84
2022-11-21T03:46:09.630Z,-4.92
2022-11-21T03:49:12.265Z,-4.97
2022-11-21T03:52:13.877Z,-5.03
2022-11-21T03:55:15.601Z,-5.20
2022-11-21T03:58:17.191Z,-5.41
2022-11-21T04:01:19.654Z,-5.50
2022-11-21T04:04:21.353Z,-5.47
2022-11-21T04:07:23.470Z,-5.46
2022-11-21T04:10:25.232Z,-5.45
2022-11-21T04:13:27.081Z,-5.43
2022-11-21T04:16:28.813Z,-5.42
2022-11-21T04:19:30.590Z,-5.41
2022-11-21T04:22:32.236Z,-5.41
2022-11-21T04:25:33.940Z,-5.40
2022-11-21T04:28:35.667Z,-5.40
2022-11-21T04:31:37.374Z,-5.40
2022-11-21T04:34:39.803Z,-5.41
2022-11-21T04:37:41.663Z,-5.45
2022-11-21T04:40:43.855Z,-5.49
2022-11-21T04:43:45.486Z,-5.49
2022-11-21T04:46:47.481Z,-5.53
2022-11-21T04:49:49.124Z,-5.58
2022-11-21T04:52:56.037Z,-5.66
2022-11-21T04:55:58.056Z,-5.87
2022-11-21T04:58:59.629Z,-6.22
2022-11-21T05:02:03.283Z,-6.46
2022-11-21T05:05:05.416Z,-6.58
2022-11-21T05:08:07.184Z,-6.58
2022-11-21T05:11:27.680Z,-6.47
2022-11-21T05:14:29.731Z,-6.39
2022-11-21T05:17:31.824Z,-6.39
2022-11-21T05:20:36.824Z,-6.38
2022-11-21T05:23:38.788Z,-6.36
2022-11-21T05:26:40.562Z,-6.57
2022-11-21T05:29:42.310Z,-6.65
2022-11-21T05:32:44.425Z,-6.58
2022-11-21T05:35:46.569Z,-6.45
2022-11-21T05:38:48.506Z,-6.58
2022-11-21T05:41:50.081Z,-6.66
2022-11-21T05:44:51.919Z,-6.73
2022-11-21T05:47:53.508Z,-6.83
2022-11-21T05:50:55.133Z,-6.91
2022-11-21T05:53:57.056Z,-6.97
2022-11-21T05:56:58.636Z,-6.97
2022-11-21T06:00:00.349Z,-7.01
2022-11-21T06:03:20.964Z,-7.07
2022-11-21T06:06:24.953Z,-7.05
2022-11-21T06:09:26.811Z,-7.02
2022-11-21T06:12:28.498Z,-6.98
2022-11-21T06:15:30.228Z,-6.97
2022-11-21T06:18:44.024Z,-6.89
2022-11-21T06:21:45.696Z,-6.79
2022-11-21T06:24:47.462Z,-6.80
2022-11-21T06:27:49.198Z,-6.91
2022-11-21T06:30:52.180Z,-7.03
2022-11-21T06:33:56.580Z,-6.93
2022-11-21T06:36:58.403Z,-6.79
2022-11-21T06:40:00.374Z,-6.69
2022-11-21T06:43:02.222Z,-6.61
2022-11-21T06:46:04.414Z,-6.52
2022-11-21T06:49:06.185Z,-6.38
2022-11-21T06:52:07.847Z,-6.09
2022-11-21T06:55:10.547Z,-5.76
2022-11-21T06:58:12.290Z,-5.43
2022-11-21T07:01:13.943Z,-5.20
2022-11-21T07:04:15.662Z,-4.97
2022-11-21T07:07:17.457Z,-4.75
2022-11-21T07:10:18.985Z,-4.50
2022-11-21T07:13:23.624Z,-4.11
2022-11-21T07:16:26.616Z,-3.89
2022-11-21T07:19:28.664Z,-3.82
2022-11-21T07:22:30.728Z,-3.77
2022-11-21T07:25:36.413Z,-3.67
2022-11-21T07:28:38.649Z,-3.71
2022-11-21T07:31:40.301Z,-3.73
2022-11-21T07:34:42.080Z,-3.65
2022-11-21T07:37:44.035Z,-3.54
2022-11-21T07:40:46.574Z,-3.49
2022-11-21T07:43:48.203Z,-3.45
2022-11-21T07:46:53.757Z,-3.38
2022-11-21T07:49:55.574Z,-3.39
2022-11-21T07:53:07.041Z,-3.34
2022-11-21T07:56:09.910Z,-3.17
2022-11-21T07:59:11.823Z,-3.06
2022-11-21T08:02:19.589Z,-2.91
2022-11-21T08:05:21.405Z,-2.74
2022-11-21T08:08:22.993Z,-2.61
2022-11-21T08:11:25.892Z,-2.46
2022-11-21T08:14:27.840Z,-2.17
2022-11-21T08:17:29.871Z,-1.81
2022-11-21T08:20:31.799Z,-1.43
2022-11-21T08:23:33.572Z,-1.11
2022-11-21T08:26:35.095Z,-0.83
2022-11-21T08:29:36.716Z,-0.51
2022-11-21T08:32:38.639Z,-0.11
2022-11-21T08:35:40.243Z,0.40
2022-11-21T08:38:41.895Z,1.18
2022-11-21T08:42:02.074Z,2.07
2022-11-21T08:45:05.552Z,3.23
2022-11-21T08:48:11.087Z,4.29
2022-11-21T08:51:12.739Z,5.24
2022-11-21T08:54:14.578Z,6.18
2022-11-21T08:57:16.196Z,7.04
2022-11-21T09:00:18.049Z,7.65
2022-11-21T09:03:23.582Z,8.17
2022-11-21T09:06:27.235Z,8.68
2022-11-21T09:09:28.876Z,8.96
2022-11-21T09:12:31.313Z,9.28
2022-11-21T09:15:51.796Z,9.51
2022-11-21T09:18:53.436Z,9.83
2022-11-21T09:21:55.178Z,10.26
2022-11-21T09:24:56.878Z,10.66
2022-11-21T09:28:06.223Z,11.03
2022-11-21T09:31:08.781Z,11.50
2022-11-21T09:34:10.611Z,11.96
2022-11-21T09:37:14.885Z,12.01
2022-11-21T09:40:16.930Z,11.88
2022-11-21T09:43:42.764Z,11.26
2022-11-21T09:46:47.745Z,11.07
2022-11-21T09:49:57.290Z,10.36
2022-11-21T09:53:07.003Z,10.99
2022-11-21T09:56:14.340Z,11.48
2022-11-21T09:59:21.714Z,11.93
2022-11-21T10:02:24.482Z,12.32
2022-11-21T10:05:52.296Z,12.72
2022-11-21T10:09:23.798Z,12.81
2022-11-21T10:12:37.299Z,12.41
2022-11-21T10:15:51.244Z,10.15
2022-11-21T10:19:10.365Z,8.25
2022-11-21T10:22:24.598Z,7.10
2022-11-21T10:25:30.907Z,6.54
2022-11-21T10:28:42.357Z,6.06
2022-11-21T10:31:44.005Z,5.65
2022-11-21T10:34:46.277Z,5.21
2022-11-21T10:38:00.286Z,4.94
2022-11-21T10:41:03.808Z,4.71
2022-11-21T10:44:24.222Z,4.47
2022-11-21T10:47:32.078Z,4.22
2022-11-21T10:50:47.150Z,4.06
2022-11-21T10:54:26.097Z,3.96
2022-11-21T10:57:31.408Z,3.90
2022-11-21T11:00:33.248Z,3.86
2022-11-21T11:03:35.042Z,3.76
2022-11-21T11:06:37.074Z,3.66
2022-11-21T11:09:40.345Z,3.62
2022-11-21T11:13:02.171Z,3.51
2022-11-21T11:16:16.255Z,3.34
2022-11-21T11:19:27.108Z,3.20
2022-11-21T11:22:33.481Z,3.12
2022-11-21T11:25:35.426Z,3.09
2022-11-21T11:28:37.198Z,3.03
2022-11-21T11:31:46.407Z,2.98
2022-11-21T11:34:51.264Z,2.96
2022-11-21T11:38:00.747Z,3.00
2022-11-21T11:41:13.812Z,3.07
2022-11-21T11:44:54.941Z,3.14
2022-11-21T11:47:59.665Z,3.10
2022-11-21T11:51:04.308Z,2.98
2022-11-21T11:54:14.836Z,2.83
2022-11-21T11:57:17.596Z,2.84
2022-11-21T12:00:25.485Z,2.84
2022-11-21T12:03:59.395Z,2.84
2022-11-21T12:08:20.075Z,2.91
2022-11-21T12:11:11.636Z,2.95
2022-11-21T12:15:15.247Z,2.97
2022-11-21T12:18:19.774Z,3.02
2022-11-21T12:21:23.576Z,3.02
2022-11-21T12:24:25.540Z,3.00
2022-11-21T12:27:31.664Z,3.09
2022-11-21T12:30:47.943Z,3.16
2022-11-21T12:34:07.306Z,3.20
2022-11-21T12:37:47.210Z,3.12
2022-11-21T12:41:37.365Z,2.87
2022-11-21T12:45:07.707Z,2.81
2022-11-21T12:48:33.430Z,2.73
2022-11-21T12:52:08.133Z,2.79
2022-11-21T12:55:20.390Z,2.89
2022-11-21T12:58:34.220Z,3.00
2022-11-21T13:01:46.933Z,3.15
2022-11-21T13:04:50.329Z,3.24
2022-11-21T13:07:59.673Z,3.17
2022-11-21T13:11:48.677Z,3.13
2022-11-21T13:15:35.418Z,3.17
2022-11-21T13:18:45.941Z,3.15
2022-11-21T13:21:49.835Z,3.13
2022-11-21T13:24:51.415Z,3.09
2022-11-21T13:27:54.893Z,3.09
2022-11-21T13:30:57.878Z,3.05
2022-11-21T13:34:01.022Z,3.02
2022-11-21T13:37:03.947Z,2.91
2022-11-21T13:40:31.404Z,2.74
2022-11-21T13:43:34.563Z,2.72
2022-11-21T13:47:05.622Z,2.73
2022-11-21T13:50:22.699Z,2.78
2022-11-21T13:54:02.304Z,2.80
2022-11-21T13:57:25.303Z,2.75
2022-11-21T14:00:48.767Z,2.67
2022-11-21T14:04:10.488Z,2.57
2022-11-21T14:07:38.931Z,2.43
2022-11-21T14:10:42.896Z,2.45
2022-11-21T14:13:47.064Z,2.53
2022-11-21T14:16:53.926Z,2.56
2022-11-21T14:19:57.458Z,2.34
2022-11-21T14:23:14.740Z,2.11
2022-11-21T14:26:20.118Z,1.97
2022-11-21T14:29:29.541Z,1.89
2022-11-21T14:32:32.222Z,1.83
2022-11-21T14:35:34.452Z,1.78
2022-11-21T14:38:43.937Z,1.75
2022-11-21T14:41:50.237Z,1.75
2022-11-21T14:45:13.777Z,1.73
2022-11-21T14:48:15.373Z,1.71
2022-11-21T14:51:19.083Z,1.67
2022-11-21T14:54:23.307Z,1.65
2022-11-21T14:57:29.238Z,1.67
2022-11-21T15:04:01.251Z,1.76
2022-11-21T15:07:03.970Z,1.76
2022-11-21T15:10:27.285Z,1.72
2022-11-21T15:13:44.956Z,1.56
2022-11-21T15:16:54.237Z,1.44
2022-11-21T15:20:17.805Z,1.43
2022-11-21T15:23:34.079Z,1.40
2022-11-21T15:26:36.356Z,1.37
2022-11-21T15:29:38.008Z,1.34
2022-11-21T15:32:58.349Z,1.30
2022-11-21T15:36:12.487Z,1.27
2022-11-21T15:39:19.789Z,1.25
2022-11-21T15:42:29.729Z,1.23
2022-11-21T15:45:31.445Z,1.18
2022-11-21T15:48:33.168Z,1.09
2022-11-21T15:54:56.426Z,1.04
2022-11-21T15:57:10.964Z,1.03
2022-11-21T15:57:58.165Z,1.05
2022-11-21T16:01:00.401Z,1.11
2022-11-21T16:04:04.913Z,1.10
2022-11-21T16:07:06.782Z,0.89
2022-11-21T16:10:14.894Z,0.64
2022-11-21T16:13:21.388Z,0.60
2022-11-21T16:16:23.544Z,0.61
2022-11-21T16:19:26.004Z,0.56
2022-11-21T16:22:27.688Z,0.58
2022-11-21T16:25:29.421Z,0.69
2022-11-21T16:28:31.098Z,0.76
2022-11-21T16:31:32.951Z,0.80
2022-11-21T16:34:34.604Z,0.79
2022-11-21T16:37:36.225Z,0.80
2022-11-21T16:40:39.511Z,0.78
2022-11-21T16:43:47.988Z,0.88
2022-11-21T16:46:51.839Z,0.91
2022-11-21T16:49:53.707Z,0.84
2022-11-21T16:52:55.206Z,0.78
2022-11-21T16:56:00.967Z,0.79
2022-11-21T16:59:02.855Z,0.80
2022-11-21T17:02:04.824Z,0.75
2022-11-21T17:05:06.997Z,0.79
2022-11-21T17:08:08.694Z,0.83
2022-11-21T17:11:17.852Z,0.86
2022-11-21T17:14:19.423Z,0.89
2022-11-21T17:17:21.282Z,0.93
2022-11-21T17:20:22.929Z,0.98
2022-11-21T17:23:24.584Z,1.01
2022-11-21T17:26:28.324Z,0.88
2022-11-21T17:29:30.215Z,0.84
2022-11-21T17:32:31.936Z,0.99
2022-11-21T17:35:33.612Z,1.06
2022-11-21T17:38:35.619Z,0.79
2022-11-21T17:41:38.257Z,0.63
2022-11-21T17:44:39.893Z,0.60
2022-11-21T17:47:42.293Z,0.64
2022-11-21T17:50:43.918Z,0.62
2022-11-21T17:53:47.295Z,0.65
2022-11-21T17:56:53.932Z,0.70
2022-11-21T17:59:58.732Z,0.75
2022-11-21T18:03:00.688Z,0.80
2022-11-21T18:06:05.037Z,0.82
2022-11-21T18:09:07.564Z,0.84
2022-11-21T18:12:09.462Z,0.84
2022-11-21T18:15:11.200Z,0.83
2022-11-21T18:18:13.320Z,0.83
2022-11-21T18:21:15.997Z,0.85
2022-11-21T18:24:17.814Z,0.87
2022-11-21T18:27:19.614Z,0.87
2022-11-21T18:30:21.345Z,0.82
2022-11-21T18:33:23.123Z,0.63
2022-11-21T18:36:26.143Z,0.51
2022-11-21T18:39:28.442Z,0.49
2022-11-21T18:42:32.334Z,0.61
2022-11-21T18:45:33.941Z,0.72
2022-11-21T18:49:00.987Z,0.66
2022-11-21T18:51:57.903Z,0.61
2022-11-21T18:54:59.666Z,0.63
2022-11-21T18:58:01.219Z,0.64
2022-11-21T19:01:07.692Z,0.65
2022-11-21T19:04:09.804Z,0.68
2022-11-21T19:07:11.705Z,0.64
2022-11-21T19:10:41.541Z,0.62
2022-11-21T19:13:35.248Z,0.62
2022-11-21T19:16:36.956Z,0.63
2022-11-21T19:19:38.622Z,0.64
2022-11-21T19:22:40.510Z,0.67
2022-11-21T19:25:42.102Z,0.70
2022-11-21T19:28:44.821Z,0.72
2022-11-21T19:31:46.661Z,0.74
2022-11-21T19:34:48.710Z,0.75
2022-11-21T19:37:50.582Z,0.78
2022-11-21T19:41:10.875Z,0.81
2022-11-21T19:44:12.753Z,0.82
2022-11-21T19:47:14.307Z,0.83
2022-11-21T19:50:15.953Z,0.84
2022-11-21T19:53:17.821Z,0.85
2022-11-21T19:56:24.715Z,0.83
2022-11-21T19:59:27.600Z,0.85
2022-11-21T20:02:29.664Z,1.02
2022-11-21T20:05:31.292Z,1.18
2022-11-21T20:08:33.700Z,1.19
2022-11-21T20:11:36.213Z,1.07
2022-11-21T20:14:37.993Z,0.97
2022-11-21T20:17:39.869Z,0.96
2022-11-21T20:20:41.681Z,0.97
2022-11-21T20:23:43.679Z,0.96
2022-11-21T20:26:45.798Z,0.88
2022-11-21T20:29:47.516Z,0.83
2022-11-21T20:32:49.197Z,0.81
2022-11-21T20:35:50.830Z,0.80
2022-11-21T20:38:57.895Z,0.85
2022-11-21T20:42:00.194Z,0.89
2022-11-21T20:48:23.766Z,1.00
2022-11-21T20:54:47.088Z,1.03
2022-11-21T20:57:48.580Z,1.03
2022-11-21T21:00:50.240Z,0.96
2022-11-21T21:03:51.945Z,0.84
2022-11-21T21:06:53.444Z,0.85
2022-11-21T21:09:56.960Z,0.98
2022-11-21T21:12:58.724Z,1.07
2022-11-21T21:16:04.389Z,0.98
2022-11-21T21:19:06.563Z,0.93
2022-11-21T21:22:09.268Z,0.95
2022-11-21T21:25:11.022Z,0.97
2022-11-21T21:28:12.637Z,0.98
2022-11-21T21:31:17.085Z,1.01
2022-11-21T21:34:20.441Z,1.03
2022-11-21T21:37:22.151Z,1.09
2022-11-21T21:40:23.809Z,1.24
2022-11-21T21:43:25.461Z,1.36
2022-11-21T21:46:28.072Z,1.44
2022-11-21T21:49:29.794Z,1.50
2022-11-21T21:52:31.721Z,1.57
2022-11-21T21:55:33.497Z,1.65
2022-11-21T21:58:38.678Z,1.73
2022-11-21T22:01:42.799Z,1.82
2022-11-21T22:04:49.140Z,1.90
2022-11-21T22:07:53.544Z,1.96
2022-11-21T22:11:00.583Z,2.03
2022-11-21T22:14:06.578Z,2.08
2022-11-21T22:17:08.644Z,2.11
2022-11-21T22:20:10.765Z,2.13
2022-11-21T22:23:12.461Z,2.16
2022-11-21T22:26:14.407Z,2.20
2022-11-21T22:29:16.169Z,2.25
2022-11-21T22:32:19.805Z,2.27
2022-11-21T22:35:21.840Z,2.28
2022-11-21T22:38:23.469Z,2.30
2022-11-21T22:41:27.317Z,2.33
2022-11-21T22:44:29.290Z,2.36
2022-11-21T22:47:31.122Z,2.37
2022-11-21T22:50:32.944Z,2.36
2022-11-21T22:53:39.962Z,2.34
2022-11-21T22:56:42.000Z,2.30
2022-11-21T22:59:43.693Z,2.24
2022-11-21T23:02:45.356Z,2.20
2022-11-21T23:05:46.970Z,2.15
2022-11-21T23:08:49.391Z,2.14
2022-11-21T23:11:51.052Z,2.12
2022-11-21T23:14:52.933Z,2.09
2022-11-21T23:17:54.737Z,2.08
2022-11-21T23:20:56.622Z,2.08
2022-11-21T23:23:58.481Z,2.06
2022-11-21T23:27:00.471Z,2.03
2022-11-21T23:30:02.193Z,1.98
2022-11-21T23:33:04.055Z,1.85
2022-11-21T23:36:06.265Z,1.68
2022-11-21T23:39:07.951Z,1.58
2022-11-21T23:42:09.491Z,1.54
2022-11-21T23:45:11.125Z,1.47
2022-11-21T23:48:12.834Z,1.36
2022-11-21T23:51:14.462Z,1.25
2022-11-21T23:54:17.166Z,1.15
2022-11-21T23:57:19.007Z,1.08
